Time;durP1;ratioP1;P1;durP2;ratioP2;P2;SDS_P1;SDS_P2;PMS_P1;PMS_P2;Temp;Humidity;BMP_temperature;BMP_pressure;BME280_temperature;BME280_humidity;BME280_pressure;Samples;Min_cycle;Max_cycle;Signal;HPM_P1;HPM_P2
2023/05/02 00:00:06;;;;;;;15.02;8.70;;;;;;;;;;6185555;23;20032;-75
2023/05/02 00:02:32;;;;;;;16.30;8.65;;;;;;;;;;6185298;23;20020;-75
2023/05/02 00:04:57;;;;;;;15.65;8.05;;;;;;;;;;6184618;23;20005;-75
2023/05/02 00:07:23;;;;;;;15.82;8.20;;;;;;;;;;6185549;23;20019;-75
2023/05/02 00:09:48;;;;;;;14.27;7.65;;;;;;;;;;6184837;23;20011;-75
2023/05/02 00:12:13;;;;;;;13.75;7.93;;;;;;;;;;6185555;23;20067;-76
2023/05/02 00:14:39;;;;;;;15.65;8.80;;;;;;;;;;6185316;23;20093;-75
2023/05/02 00:17:04;;;;;;;16.30;8.82;;;;;;;;;;6183584;23;20087;-76
2023/05/02 00:19:29;;;;;;;14.65;8.88;;;;;;;;;;6183627;23;20005;-76
2023/05/02 00:21:55;;;;;;;15.20;9.25;;;;;;;;;;6184327;23;20474;-75
2023/05/02 00:24:20;;;;;;;15.68;9.82;;;;;;;;;;6181193;23;20439;-75
2023/05/02 00:26:46;;;;;;;15.00;9.35;;;;;;;;;;6184702;23;20328;-76
2023/05/02 00:29:11;;;;;;;13.07;8.23;;;;;;;;;;6180994;23;20069;-75
2023/05/02 00:31:39;;;;;;;13.40;8.13;;;;;;;;;;6185095;23;20011;-75
2023/05/02 00:34:05;;;;;;;11.95;6.43;;;;;;;;;;6182117;23;20016;-75
2023/05/02 00:36:31;;;;;;;10.00;6.28;;;;;;;;;;6182785;23;20005;-76
2023/05/02 00:38:56;;;;;;;11.70;6.72;;;;;;;;;;6182256;23;20092;-75
2023/05/02 00:41:21;;;;;;;11.48;6.45;;;;;;;;;;6183240;23;20016;-75
2023/05/02 00:43:47;;;;;;;10.27;5.90;;;;;;;;;;6184652;23;20004;-75
2023/05/02 00:46:13;;;;;;;10.32;5.63;;;;;;;;;;6183389;23;20005;-76
2023/05/02 00:48:38;;;;;;;10.65;5.80;;;;;;;;;;6177212;23;20015;-76
2023/05/02 00:51:04;;;;;;;8.93;5.72;;;;;;;;;;6180550;23;20009;-75
2023/05/02 00:53:30;;;;;;;10.52;5.85;;;;;;;;;;6156425;23;20064;-75
2023/05/02 00:55:57;;;;;;;11.30;5.80;;;;;;;;;;6182173;23;20000;-76
2023/05/02 00:58:23;;;;;;;11.48;6.38;;;;;;;;;;6180352;23;20344;-75
2023/05/02 01:00:51;;;;;;;12.65;7.40;;;;;;;;;;6182230;23;20004;-75
2023/05/02 01:03:53;;;;;;;13.20;7.18;;;;;;;;;;6180742;23;20001;-75
2023/05/02 01:06:32;;;;;;;17.17;7.78;;;;;;;;;;6181193;23;20530;-76
2023/05/02 01:09:26;;;;;;;13.00;7.75;;;;;;;;;;6185034;23;20367;-76
2023/05/02 01:12:03;;;;;;;13.32;7.90;;;;;;;;;;6183211;23;20048;-76
2023/05/02 01:14:32;;;;;;;13.18;7.18;;;;;;;;;;6183211;23;20369;-76
2023/05/02 01:17:03;;;;;;;11.93;7.20;;;;;;;;;;6183215;23;20471;-77
2023/05/02 01:19:34;;;;;;;10.45;7.00;;;;;;;;;;6181027;23;20016;-76
2023/05/02 01:22:03;;;;;;;13.20;6.90;;;;;;;;;;6182542;23;20005;-75
2023/05/02 01:24:41;;;;;;;11.93;6.35;;;;;;;;;;6183435;23;20055;-76
2023/05/02 01:27:31;;;;;;;12.27;7.07;;;;;;;;;;6184325;23;20084;-75
2023/05/02 01:29:58;;;;;;;12.68;6.75;;;;;;;;;;6185138;23;20480;-76
2023/05/02 01:32:25;;;;;;;12.93;6.97;;;;;;;;;;6183962;23;20079;-75
2023/05/02 01:34:53;;;;;;;11.63;6.95;;;;;;;;;;6182061;23;20093;-76
2023/05/02 01:37:19;;;;;;;13.52;7.28;;;;;;;;;;6206502;23;20008;-76
2023/05/02 01:39:47;;;;;;;13.68;7.53;;;;;;;;;;6208011;23;20428;-76
2023/05/02 01:42:13;;;;;;;16.40;7.47;;;;;;;;;;6182949;23;20466;-75
2023/05/02 01:44:41;;;;;;;11.93;6.88;;;;;;;;;;6184335;23;20036;-76
2023/05/02 01:47:08;;;;;;;11.95;7.13;;;;;;;;;;6183023;23;20367;-76
2023/05/02 01:49:35;;;;;;;14.82;7.72;;;;;;;;;;6179900;23;20005;-76
2023/05/02 01:52:04;;;;;;;14.30;7.93;;;;;;;;;;6205207;23;20008;-75
2023/05/02 01:54:32;;;;;;;13.82;8.25;;;;;;;;;;6182463;23;20016;-75
2023/05/02 01:56:58;;;;;;;13.15;7.55;;;;;;;;;;6206755;23;20502;-76
2023/05/02 01:59:25;;;;;;;13.60;8.00;;;;;;;;;;6183308;23;20051;-76
2023/05/02 02:01:52;;;;;;;13.43;8.25;;;;;;;;;;6181828;23;20009;-76
2023/05/02 02:04:19;;;;;;;14.18;8.43;;;;;;;;;;6184371;23;20416;-75
2023/05/02 02:06:49;;;;;;;12.77;7.85;;;;;;;;;;6207674;23;20016;-76
2023/05/02 02:09:15;;;;;;;14.20;8.07;;;;;;;;;;6180119;23;20009;-75
2023/05/02 02:11:45;;;;;;;11.05;6.93;;;;;;;;;;6182869;23;20005;-75
2023/05/02 02:14:17;;;;;;;13.93;8.43;;;;;;;;;;6183140;23;20001;-76
2023/05/02 02:16:43;;;;;;;11.97;7.43;;;;;;;;;;6183712;23;20009;-76
2023/05/02 02:19:12;;;;;;;15.15;8.38;;;;;;;;;;6183148;23;20371;-77
2023/05/02 02:21:39;;;;;;;11.43;7.20;;;;;;;;;;6180867;23;20012;-76
2023/05/02 02:24:06;;;;;;;9.80;6.82;;;;;;;;;;6179144;23;19996;-76
2023/05/02 02:26:32;;;;;;;10.13;6.10;;;;;;;;;;6182407;23;20036;-76
2023/05/02 02:29:00;;;;;;;12.63;7.50;;;;;;;;;;6182425;23;20335;-75
2023/05/02 02:31:30;;;;;;;11.35;6.80;;;;;;;;;;6182462;23;20335;-76
2023/05/02 02:33:56;;;;;;;12.93;7.38;;;;;;;;;;6183012;23;20014;-76
2023/05/02 02:36:48;;;;;;;11.93;7.25;;;;;;;;;;6177198;23;20017;-77
2023/05/02 02:39:37;;;;;;;11.67;6.50;;;;;;;;;;6168726;23;20009;-76
2023/05/02 02:42:08;;;;;;;13.18;6.32;;;;;;;;;;6139240;23;20329;-75
2023/05/02 02:44:53;;;;;;;11.77;6.53;;;;;;;;;;6183505;23;20428;-76
2023/05/02 02:47:22;;;;;;;9.15;5.43;;;;;;;;;;6182362;23;20043;-76
2023/05/02 02:50:04;;;;;;;10.25;5.65;;;;;;;;;;6180985;23;20016;-75
2023/05/02 02:52:51;;;;;;;8.98;3.90;;;;;;;;;;6182205;23;20015;-77
2023/05/02 02:55:29;;;;;;;7.95;3.42;;;;;;;;;;6181794;23;20036;-76
2023/05/02 02:58:00;;;;;;;5.63;2.80;;;;;;;;;;6182168;23;20005;-76
2023/05/02 03:00:27;;;;;;;6.43;2.60;;;;;;;;;;6181359;23;20013;-76
2023/05/02 03:02:54;;;;;;;6.60;2.33;;;;;;;;;;6181919;23;20096;-76
2023/05/02 03:05:21;;;;;;;6.00;2.47;;;;;;;;;;6208229;23;20051;-75
2023/05/02 03:07:46;;;;;;;5.13;2.60;;;;;;;;;;6183372;23;20005;-77
2023/05/02 03:10:12;;;;;;;6.97;2.75;;;;;;;;;;6182349;23;20005;-76
2023/05/02 03:12:38;;;;;;;4.72;2.38;;;;;;;;;;6182763;23;20008;-76
2023/05/02 03:15:27;;;;;;;5.28;2.40;;;;;;;;;;6182547;23;20057;-76
2023/05/02 03:17:53;;;;;;;4.88;2.30;;;;;;;;;;6183185;23;20005;-76
2023/05/02 03:20:18;;;;;;;5.78;2.47;;;;;;;;;;6184247;23;20106;-76
2023/05/02 03:22:44;;;;;;;5.28;2.40;;;;;;;;;;6182728;23;20005;-76
2023/05/02 03:25:09;;;;;;;6.35;2.30;;;;;;;;;;6183837;23;20037;-76
2023/05/02 03:27:34;;;;;;;6.43;2.53;;;;;;;;;;6183160;23;20001;-76
2023/05/02 03:30:00;;;;;;;5.68;2.30;;;;;;;;;;6185841;23;20384;-76
2023/05/02 03:32:26;;;;;;;4.43;2.22;;;;;;;;;;6181710;23;20039;-75
2023/05/02 03:34:51;;;;;;;4.55;2.10;;;;;;;;;;6183080;23;20012;-76
2023/05/02 03:37:16;;;;;;;5.63;2.15;;;;;;;;;;6184523;23;20001;-76
2023/05/02 03:39:43;;;;;;;6.03;2.20;;;;;;;;;;6181632;23;20012;-76
2023/05/02 03:42:08;;;;;;;6.57;1.80;;;;;;;;;;6182041;23;20012;-76
2023/05/02 03:44:33;;;;;;;4.22;1.60;;;;;;;;;;6183684;23;20016;-75
2023/05/02 03:46:59;;;;;;;3.53;1.52;;;;;;;;;;6181554;23;20055;-75
2023/05/02 03:49:24;;;;;;;4.63;1.52;;;;;;;;;;6184834;23;20009;-75
2023/05/02 03:51:50;;;;;;;4.32;1.60;;;;;;;;;;6182900;23;20009;-76
2023/05/02 03:54:15;;;;;;;6.10;1.38;;;;;;;;;;6181093;23;20005;-75
2023/05/02 03:56:41;;;;;;;4.35;1.52;;;;;;;;;;6183240;23;20001;-76
2023/05/02 03:59:06;;;;;;;4.32;1.42;;;;;;;;;;6157745;23;20123;-76
2023/05/02 04:01:31;;;;;;;4.65;1.30;;;;;;;;;;6180852;23;20012;-76
2023/05/02 04:03:57;;;;;;;5.05;1.52;;;;;;;;;;6185105;23;20001;-77
2023/05/02 04:06:22;;;;;;;6.65;1.52;;;;;;;;;;6184511;23;20080;-76
2023/05/02 04:08:47;;;;;;;5.47;1.42;;;;;;;;;;6205423;23;20254;-76
2023/05/02 04:11:13;;;;;;;3.20;1.17;;;;;;;;;;6181352;23;20005;-75
2023/05/02 04:13:39;;;;;;;2.83;1.10;;;;;;;;;;6184070;23;20660;-75
2023/05/02 04:16:04;;;;;;;4.15;1.30;;;;;;;;;;6184989;23;20001;-77
2023/05/02 04:18:30;;;;;;;3.15;1.35;;;;;;;;;;6183244;23;19997;-76
2023/05/02 04:20:55;;;;;;;4.60;1.40;;;;;;;;;;6207443;23;20012;-75
2023/05/02 04:23:20;;;;;;;5.60;1.20;;;;;;;;;;6182779;23;20050;-76
2023/05/02 04:25:53;;;;;;;2.97;1.15;;;;;;;;;;6182469;23;20066;-76
2023/05/02 04:28:20;;;;;;;4.03;1.20;;;;;;;;;;6180879;23;20317;-76
2023/05/02 04:30:46;;;;;;;3.75;1.20;;;;;;;;;;6180811;23;20032;-75
2023/05/02 04:33:11;;;;;;;4.00;1.63;;;;;;;;;;6179565;23;20187;-75
2023/05/02 04:35:39;;;;;;;6.18;1.33;;;;;;;;;;6206830;23;20012;-76
2023/05/02 04:38:05;;;;;;;2.75;1.10;;;;;;;;;;6182384;23;20419;-77
2023/05/02 04:40:30;;;;;;;5.07;1.25;;;;;;;;;;6205686;23;20012;-76
2023/05/02 04:42:55;;;;;;;3.13;1.08;;;;;;;;;;6182715;23;20051;-76
2023/05/02 04:45:21;;;;;;;5.88;1.65;;;;;;;;;;6181628;23;20064;-75
2023/05/02 04:47:46;;;;;;;4.80;1.38;;;;;;;;;;6181795;23;20009;-76
2023/05/02 04:50:11;;;;;;;6.35;1.35;;;;;;;;;;6182394;23;20020;-76
2023/05/02 04:52:37;;;;;;;4.43;1.30;;;;;;;;;;6181259;23;20005;-75
2023/05/02 04:55:02;;;;;;;4.22;1.48;;;;;;;;;;6180031;23;20095;-76
2023/05/02 04:57:27;;;;;;;3.08;1.20;;;;;;;;;;6179082;23;20013;-75
2023/05/02 04:59:53;;;;;;;2.28;1.08;;;;;;;;;;6180212;23;20088;-76
2023/05/02 05:02:18;;;;;;;3.13;1.02;;;;;;;;;;6176725;23;20028;-76
2023/05/02 05:04:44;;;;;;;6.28;1.00;;;;;;;;;;6180784;23;20135;-75
2023/05/02 05:07:10;;;;;;;4.65;1.20;;;;;;;;;;6179379;23;20438;-76
2023/05/02 05:09:35;;;;;;;3.67;1.10;;;;;;;;;;6181155;23;20005;-76
2023/05/02 05:12:01;;;;;;;5.20;1.20;;;;;;;;;;6178841;23;20012;-76
2023/05/02 05:14:26;;;;;;;6.40;1.10;;;;;;;;;;6176170;23;20088;-77
2023/05/02 05:16:51;;;;;;;5.13;1.33;;;;;;;;;;6180678;23;20040;-76
2023/05/02 05:19:17;;;;;;;3.58;1.00;;;;;;;;;;6180796;23;20024;-75
2023/05/02 05:21:42;;;;;;;4.93;1.30;;;;;;;;;;6181464;23;20097;-76
2023/05/02 05:24:08;;;;;;;4.95;1.45;;;;;;;;;;6179523;23;20515;-76
2023/05/02 05:26:33;;;;;;;5.35;1.50;;;;;;;;;;6181461;23;20085;-77
2023/05/02 05:28:58;;;;;;;4.57;1.50;;;;;;;;;;6180038;23;20029;-76
2023/05/02 05:31:24;;;;;;;5.40;1.60;;;;;;;;;;6181191;23;20044;-76
2023/05/02 05:33:49;;;;;;;3.47;1.23;;;;;;;;;;6184219;23;20001;-75
2023/05/02 05:36:14;;;;;;;4.25;1.23;;;;;;;;;;6183326;23;20005;-76
2023/05/02 05:38:40;;;;;;;3.92;1.35;;;;;;;;;;6182149;23;20005;-76
2023/05/02 05:41:06;;;;;;;5.32;1.20;;;;;;;;;;6181093;23;20001;-76
2023/05/02 05:43:32;;;;;;;8.63;1.40;;;;;;;;;;6180519;23;20416;-75
2023/05/02 05:45:57;;;;;;;3.05;0.95;;;;;;;;;;6180996;23;20043;-75
2023/05/02 05:48:23;;;;;;;4.47;1.20;;;;;;;;;;6178428;23;20092;-75
2023/05/02 05:50:48;;;;;;;5.00;1.23;;;;;;;;;;6178752;23;20042;-76
2023/05/02 05:53:15;;;;;;;2.63;1.08;;;;;;;;;;6183667;23;20007;-75
2023/05/02 05:55:41;;;;;;;3.45;1.10;;;;;;;;;;6182266;23;20040;-77
2023/05/02 05:58:06;;;;;;;4.78;1.40;;;;;;;;;;6182715;23;20063;-76
2023/05/02 06:00:36;;;;;;;1.90;1.00;;;;;;;;;;6181326;23;20024;-75
2023/05/02 06:03:02;;;;;;;4.00;1.67;;;;;;;;;;6181998;23;20440;-76
2023/05/02 06:05:28;;;;;;;6.03;1.35;;;;;;;;;;6181308;23;20462;-75
2023/05/02 06:07:53;;;;;;;4.60;1.45;;;;;;;;;;6183335;23;20004;-76
2023/05/02 06:10:18;;;;;;;7.35;1.65;;;;;;;;;;6181171;23;20062;-75
2023/05/02 06:12:44;;;;;;;8.02;2.05;;;;;;;;;;6181658;23;20032;-75
2023/05/02 06:15:09;;;;;;;5.18;1.40;;;;;;;;;;6180642;23;20008;-76
2023/05/02 06:17:34;;;;;;;4.47;1.23;;;;;;;;;;6181565;23;20108;-76
2023/05/02 06:20:00;;;;;;;3.88;1.58;;;;;;;;;;6181165;23;20359;-76
2023/05/02 06:22:25;;;;;;;5.65;1.95;;;;;;;;;;6179490;23;20005;-77
2023/05/02 06:24:51;;;;;;;4.95;1.45;;;;;;;;;;6178544;23;20005;-75
2023/05/02 06:27:16;;;;;;;6.03;1.50;;;;;;;;;;6183573;23;20004;-76
2023/05/02 06:29:41;;;;;;;4.00;1.40;;;;;;;;;;6182670;23;20088;-77
2023/05/02 06:32:06;;;;;;;5.97;1.63;;;;;;;;;;6183439;23;20000;-76
2023/05/02 06:34:32;;;;;;;6.43;1.50;;;;;;;;;;6180805;23;20020;-76
2023/05/02 06:36:58;;;;;;;6.95;2.03;;;;;;;;;;6179294;23;20005;-76
2023/05/02 06:39:23;;;;;;;6.03;1.58;;;;;;;;;;6183009;23;20088;-75
2023/05/02 06:41:49;;;;;;;8.40;1.73;;;;;;;;;;6179743;23;20091;-76
2023/05/02 06:44:14;;;;;;;5.95;2.03;;;;;;;;;;6180569;23;20012;-76
2023/05/02 06:46:40;;;;;;;7.13;1.80;;;;;;;;;;6180634;23;20011;-75
2023/05/02 06:49:05;;;;;;;3.80;1.92;;;;;;;;;;6178353;23;20005;-76
2023/05/02 06:51:31;;;;;;;9.88;2.45;;;;;;;;;;6153415;23;20009;-75
2023/05/02 06:53:56;;;;;;;11.75;2.35;;;;;;;;;;6180245;23;20016;-75
2023/05/02 06:56:24;;;;;;;8.43;2.13;;;;;;;;;;6182099;23;20344;-75
2023/05/02 06:58:50;;;;;;;6.60;2.20;;;;;;;;;;6183013;23;20007;-76
2023/05/02 07:01:15;;;;;;;10.98;2.20;;;;;;;;;;6178955;23;20095;-75
2023/05/02 07:03:41;;;;;;;7.47;2.20;;;;;;;;;;6181483;23;20009;-75
2023/05/02 07:06:06;;;;;;;8.18;1.83;;;;;;;;;;6182819;23;20015;-75
2023/05/02 07:08:31;;;;;;;7.78;2.03;;;;;;;;;;6183803;23;20453;-76
2023/05/02 07:10:57;;;;;;;5.90;1.80;;;;;;;;;;6181547;23;20005;-75
2023/05/02 07:13:22;;;;;;;5.03;1.63;;;;;;;;;;6180665;23;20016;-76
2023/05/02 07:15:47;;;;;;;5.30;1.73;;;;;;;;;;6181848;23;20009;-76
2023/05/02 07:18:13;;;;;;;6.10;2.00;;;;;;;;;;6181533;23;20005;-76
2023/05/02 07:20:40;;;;;;;6.40;1.70;;;;;;;;;;6180545;23;20001;-76
2023/05/02 07:23:05;;;;;;;5.72;1.70;;;;;;;;;;6180983;23;20009;-76
2023/05/02 07:25:30;;;;;;;6.88;1.42;;;;;;;;;;6181661;23;20109;-76
2023/05/02 07:27:56;;;;;;;2.40;1.30;;;;;;;;;;6183271;23;20008;-75
2023/05/02 07:30:22;;;;;;;4.93;1.73;;;;;;;;;;6181906;23;20020;-76
2023/05/02 07:32:47;;;;;;;6.10;2.10;;;;;;;;;;6180786;23;20092;-76
2023/05/02 07:35:13;;;;;;;7.13;1.50;;;;;;;;;;6182618;23;20036;-76
2023/05/02 07:37:38;;;;;;;3.35;1.42;;;;;;;;;;6181818;23;20059;-76
2023/05/02 07:40:04;;;;;;;6.05;1.80;;;;;;;;;;6183238;23;20009;-75
2023/05/02 07:42:30;;;;;;;3.95;1.40;;;;;;;;;;6182273;23;20005;-76
2023/05/02 07:44:55;;;;;;;6.47;1.48;;;;;;;;;;6181158;23;20008;-76
2023/05/02 07:47:21;;;;;;;5.90;1.73;;;;;;;;;;6182167;23;20036;-75
2023/05/02 07:49:50;;;;;;;4.47;1.73;;;;;;;;;;6184504;23;20012;-76
2023/05/02 07:52:16;;;;;;;4.03;1.15;;;;;;;;;;6182492;23;20096;-75
2023/05/02 07:54:41;;;;;;;2.95;1.20;;;;;;;;;;6183822;23;20032;-75
2023/05/02 07:57:07;;;;;;;7.70;1.80;;;;;;;;;;6182518;23;20092;-76
2023/05/02 07:59:32;;;;;;;3.58;1.60;;;;;;;;;;6182829;23;20009;-76
2023/05/02 08:01:58;;;;;;;4.13;1.70;;;;;;;;;;6180616;23;20009;-76
2023/05/02 08:04:24;;;;;;;7.43;1.85;;;;;;;;;;6183649;23;20375;-76
2023/05/02 08:06:49;;;;;;;5.38;1.50;;;;;;;;;;6182817;23;20450;-76
2023/05/02 08:09:14;;;;;;;3.35;1.23;;;;;;;;;;6183801;23;20016;-76
2023/05/02 08:11:40;;;;;;;4.60;1.35;;;;;;;;;;6183552;23;20009;-76
2023/05/02 08:14:05;;;;;;;3.55;1.50;;;;;;;;;;6180999;23;20009;-76
2023/05/02 08:16:30;;;;;;;4.97;1.48;;;;;;;;;;6182430;23;20092;-76
2023/05/02 08:18:56;;;;;;;7.07;1.48;;;;;;;;;;6207556;23;20005;-76
2023/05/02 08:21:21;;;;;;;7.10;1.80;;;;;;;;;;6183011;23;20005;-76
2023/05/02 08:23:46;;;;;;;6.18;1.50;;;;;;;;;;6184002;23;20055;-76
2023/05/02 08:26:12;;;;;;;3.28;1.33;;;;;;;;;;6182536;23;20021;-76
2023/05/02 08:28:37;;;;;;;9.43;2.20;;;;;;;;;;6186615;23;20012;-76
2023/05/02 08:31:02;;;;;;;5.03;1.67;;;;;;;;;;6181219;23;20017;-76
2023/05/02 08:33:28;;;;;;;2.80;1.25;;;;;;;;;;6181432;23;20059;-76
2023/05/02 08:35:53;;;;;;;8.25;1.60;;;;;;;;;;6180934;23;20435;-75
2023/05/02 08:38:18;;;;;;;9.40;1.83;;;;;;;;;;6180229;23;20009;-76
2023/05/02 08:40:44;;;;;;;5.07;2.20;;;;;;;;;;6182924;23;20009;-75
2023/05/02 08:43:10;;;;;;;7.85;1.90;;;;;;;;;;6182595;23;20043;-75
2023/05/02 08:45:40;;;;;;;7.57;1.90;;;;;;;;;;6183070;23;20032;-75
2023/05/02 08:48:09;;;;;;;4.78;1.75;;;;;;;;;;6183137;23;20450;-75
2023/05/02 08:50:40;;;;;;;6.97;1.92;;;;;;;;;;6181760;23;20189;-76
2023/05/02 08:53:07;;;;;;;7.97;1.85;;;;;;;;;;6181899;23;20013;-75
2023/05/02 08:55:35;;;;;;;8.02;1.75;;;;;;;;;;6181807;23;20028;-76
2023/05/02 08:58:02;;;;;;;8.60;2.15;;;;;;;;;;6183386;23;20036;-75
2023/05/02 09:00:28;;;;;;;5.57;1.95;;;;;;;;;;6183320;23;20083;-75
2023/05/02 09:03:20;;;;;;;6.00;1.90;;;;;;;;;;6180915;23;20013;-76
2023/05/02 09:05:58;;;;;;;8.15;2.10;;;;;;;;;;6183039;23;20075;-76
2023/05/02 09:08:24;;;;;;;6.10;1.60;;;;;;;;;;6179210;23;20332;-75
2023/05/02 09:10:50;;;;;;;6.53;1.80;;;;;;;;;;6180485;23;20013;-74
2023/05/02 09:13:36;;;;;;;8.32;1.92;;;;;;;;;;6181974;23;20059;-75
2023/05/02 09:16:02;;;;;;;7.45;1.92;;;;;;;;;;6183292;23;20001;-75
2023/05/02 09:18:34;;;;;;;6.22;1.70;;;;;;;;;;6183435;23;20009;-76
2023/05/02 09:21:00;;;;;;;5.20;1.90;;;;;;;;;;6176588;23;20008;-75
2023/05/02 09:24:02;;;;;;;5.00;1.70;;;;;;;;;;6181222;23;20520;-75
2023/05/02 09:26:31;;;;;;;10.25;2.13;;;;;;;;;;6178427;23;20043;-75
2023/05/02 09:28:57;;;;;;;5.82;1.80;;;;;;;;;;6182856;23;20435;-76
2023/05/02 09:31:26;;;;;;;6.10;2.05;;;;;;;;;;6153984;23;20043;-76
2023/05/02 09:33:53;;;;;;;6.53;1.95;;;;;;;;;;6181990;23;20009;-75
2023/05/02 09:36:20;;;;;;;4.72;1.60;;;;;;;;;;6177522;23;20313;-76
2023/05/02 09:38:48;;;;;;;5.20;1.60;;;;;;;;;;6155833;23;20039;-76
2023/05/02 09:41:13;;;;;;;5.65;1.35;;;;;;;;;;6179836;23;20013;-77
2023/05/02 09:43:40;;;;;;;3.35;1.23;;;;;;;;;;6178937;23;20112;-75
2023/05/02 09:46:07;;;;;;;3.72;1.52;;;;;;;;;;6182825;23;20000;-76
2023/05/02 09:48:51;;;;;;;6.15;1.52;;;;;;;;;;6181646;23;20112;-75
2023/05/02 09:51:18;;;;;;;3.67;1.35;;;;;;;;;;6177430;23;20070;-75
2023/05/02 09:53:44;;;;;;;3.88;1.60;;;;;;;;;;6182957;23;20013;-75
2023/05/02 09:56:10;;;;;;;3.92;1.70;;;;;;;;;;6180728;23;20005;-76
2023/05/02 09:58:35;;;;;;;5.28;1.70;;;;;;;;;;6183432;23;20000;-76
2023/05/02 10:01:01;;;;;;;5.00;1.77;;;;;;;;;;6178895;23;20320;-77
2023/05/02 10:03:28;;;;;;;3.75;1.50;;;;;;;;;;6170640;23;20071;-76
2023/05/02 10:05:54;;;;;;;7.18;1.80;;;;;;;;;;6175707;23;20431;-77
2023/05/02 10:08:21;;;;;;;4.53;1.90;;;;;;;;;;6173412;23;20671;-76
2023/05/02 10:10:53;;;;;;;6.18;1.52;;;;;;;;;;6171472;23;20016;-76
2023/05/02 10:13:25;;;;;;;3.83;1.42;;;;;;;;;;6196237;23;20009;-76
2023/05/02 10:15:58;;;;;;;5.10;1.60;;;;;;;;;;6174840;23;20008;-76
2023/05/02 10:18:32;;;;;;;4.47;2.00;;;;;;;;;;6172208;23;20395;-77
2023/05/02 10:21:02;;;;;;;3.70;1.40;;;;;;;;;;6174065;23;20020;-76
2023/05/02 10:23:28;;;;;;;3.50;1.40;;;;;;;;;;6174897;23;20320;-76
2023/05/02 10:25:54;;;;;;;5.63;1.83;;;;;;;;;;6171785;23;20013;-76
2023/05/02 10:28:20;;;;;;;5.10;1.42;;;;;;;;;;6171085;23;20039;-75
2023/05/02 10:30:46;;;;;;;4.50;1.50;;;;;;;;;;6172997;23;20536;-76
2023/05/02 10:33:16;;;;;;;5.72;1.52;;;;;;;;;;6169439;23;20009;-77
2023/05/02 10:35:45;;;;;;;3.95;1.85;;;;;;;;;;6174013;23;20160;-76
2023/05/02 10:38:11;;;;;;;4.13;1.50;;;;;;;;;;6169315;23;20512;-76
2023/05/02 10:40:39;;;;;;;3.75;1.27;;;;;;;;;;6173348;23;20001;-76
2023/05/02 10:43:05;;;;;;;3.20;1.40;;;;;;;;;;6171426;23;20005;-77
2023/05/02 10:45:37;;;;;;;3.20;1.50;;;;;;;;;;6172224;23;20042;-76
2023/05/02 10:48:18;;;;;;;2.47;1.25;;;;;;;;;;6173157;23;20009;-76
2023/05/02 10:50:46;;;;;;;2.42;1.30;;;;;;;;;;6172828;23;20324;-76
2023/05/02 10:53:33;;;;;;;4.72;1.63;;;;;;;;;;6171333;23;20339;-76
2023/05/02 10:56:15;;;;;;;5.50;1.55;;;;;;;;;;6173020;23;20036;-76
2023/05/02 10:58:45;;;;;;;6.88;1.48;;;;;;;;;;6172764;23;20009;-77
2023/05/02 11:01:29;;;;;;;3.17;1.30;;;;;;;;;;6170461;23;20020;-77
2023/05/02 11:03:59;;;;;;;2.40;1.30;;;;;;;;;;6171530;23;20028;-77
2023/05/02 11:06:29;;;;;;;3.53;1.40;;;;;;;;;;6171804;23;20499;-77
2023/05/02 11:09:21;;;;;;;4.53;1.40;;;;;;;;;;6172211;23;20715;-77
2023/05/02 11:11:51;;;;;;;3.00;1.50;;;;;;;;;;6160092;23;20020;-76
2023/05/02 11:14:28;;;;;;;6.18;1.80;;;;;;;;;;6170708;23;20009;-76
2023/05/02 11:16:59;;;;;;;4.78;1.33;;;;;;;;;;6173168;23;20001;-76
2023/05/02 11:19:26;;;;;;;4.18;1.80;;;;;;;;;;6173041;23;20009;-76
2023/05/02 11:21:52;;;;;;;7.13;1.75;;;;;;;;;;6169261;23;20344;-77
2023/05/02 11:24:40;;;;;;;6.25;1.75;;;;;;;;;;6173107;23;20609;-77
2023/05/02 11:27:28;;;;;;;3.63;1.65;;;;;;;;;;6174862;23;20016;-76
2023/05/02 11:29:58;;;;;;;4.18;1.60;;;;;;;;;;6174789;23;20011;-76
2023/05/02 11:32:44;;;;;;;3.97;2.08;;;;;;;;;;6172273;23;20024;-76
2023/05/02 11:35:20;;;;;;;4.35;1.95;;;;;;;;;;6174822;23;20032;-76
2023/05/02 11:38:02;;;;;;;6.22;1.73;;;;;;;;;;6172536;23;20066;-76
2023/05/02 11:40:28;;;;;;;3.78;1.75;;;;;;;;;;6175048;23;20013;-76
2023/05/02 11:42:55;;;;;;;5.13;1.88;;;;;;;;;;6166077;23;20031;-76
2023/05/02 11:45:22;;;;;;;5.78;1.92;;;;;;;;;;6173346;23;20020;-76
2023/05/02 11:47:50;;;;;;;4.30;1.50;;;;;;;;;;6174857;23;20005;-76
2023/05/02 11:50:16;;;;;;;5.00;1.60;;;;;;;;;;6176001;23;20020;-77
2023/05/02 11:52:43;;;;;;;4.53;2.03;;;;;;;;;;6176286;23;20013;-76
2023/05/02 11:55:13;;;;;;;4.80;1.80;;;;;;;;;;6173593;23;20082;-76
2023/05/02 11:57:38;;;;;;;3.83;1.77;;;;;;;;;;6176452;23;20331;-76
2023/05/02 12:00:05;;;;;;;4.70;1.83;;;;;;;;;;6176993;23;20036;-77
2023/05/02 12:02:36;;;;;;;4.72;1.70;;;;;;;;;;6174708;23;20005;-76
2023/05/02 12:05:04;;;;;;;3.95;1.88;;;;;;;;;;6174323;23;20447;-76
2023/05/02 12:07:40;;;;;;;8.57;2.38;;;;;;;;;;6176311;23;20516;-76
2023/05/02 12:10:07;;;;;;;6.28;1.70;;;;;;;;;;6175338;23;20415;-76
2023/05/02 12:12:32;;;;;;;7.38;2.05;;;;;;;;;;6172531;23;20005;-77
2023/05/02 12:15:03;;;;;;;4.07;1.90;;;;;;;;;;6176308;23;20420;-76
2023/05/02 12:17:29;;;;;;;5.57;1.95;;;;;;;;;;6175086;23;20406;-76
2023/05/02 12:19:54;;;;;;;6.28;1.90;;;;;;;;;;6173906;23;20009;-77
2023/05/02 12:22:22;;;;;;;4.50;1.90;;;;;;;;;;6149465;23;20017;-77
2023/05/02 12:24:48;;;;;;;5.75;2.30;;;;;;;;;;6177233;23;20005;-76
2023/05/02 12:27:15;;;;;;;4.00;1.88;;;;;;;;;;6173429;23;20084;-76
2023/05/02 12:29:47;;;;;;;4.32;2.08;;;;;;;;;;6175644;23;20016;-77
2023/05/02 12:32:14;;;;;;;5.83;2.00;;;;;;;;;;6170929;23;20009;-76
2023/05/02 12:34:40;;;;;;;7.25;2.00;;;;;;;;;;6175039;23;20251;-77
2023/05/02 12:37:06;;;;;;;5.32;2.35;;;;;;;;;;6173427;23;20386;-76
2023/05/02 12:39:37;;;;;;;4.82;1.88;;;;;;;;;;6176306;23;20028;-76
2023/05/02 12:42:13;;;;;;;6.07;1.98;;;;;;;;;;6171493;23;20438;-76
2023/05/02 12:44:41;;;;;;;6.15;1.98;;;;;;;;;;6174725;23;20332;-77
2023/05/02 12:47:10;;;;;;;5.18;2.50;;;;;;;;;;6175218;23;20038;-76
2023/05/02 12:49:57;;;;;;;5.82;2.20;;;;;;;;;;6174658;23;20009;-75
2023/05/02 12:52:46;;;;;;;4.55;2.00;;;;;;;;;;6172375;23;20009;-76
2023/05/02 12:55:26;;;;;;;5.40;2.03;;;;;;;;;;6174146;23;20071;-77
2023/05/02 12:58:01;;;;;;;5.55;2.20;;;;;;;;;;6175618;23;20015;-76
2023/05/02 13:00:27;;;;;;;4.15;1.90;;;;;;;;;;6174140;23;20050;-77
2023/05/02 13:02:52;;;;;;;6.63;2.33;;;;;;;;;;6175160;23;20341;-76
2023/05/02 13:05:18;;;;;;;5.28;2.05;;;;;;;;;;6173942;23;20380;-76
2023/05/02 13:07:44;;;;;;;6.93;2.10;;;;;;;;;;6174440;23;20017;-75
2023/05/02 13:10:11;;;;;;;5.95;2.20;;;;;;;;;;6176934;23;20009;-75
2023/05/02 13:12:37;;;;;;;3.08;1.88;;;;;;;;;;6173087;23;20442;-75
2023/05/02 13:15:07;;;;;;;4.25;1.77;;;;;;;;;;6173167;23;20108;-75
2023/05/02 13:17:33;;;;;;;4.93;2.13;;;;;;;;;;6175545;23;20009;-76
2023/05/02 13:19:59;;;;;;;6.10;2.08;;;;;;;;;;6180120;23;20087;-76
2023/05/02 13:22:24;;;;;;;4.90;2.20;;;;;;;;;;6177477;23;20045;-77
2023/05/02 13:24:50;;;;;;;7.50;2.30;;;;;;;;;;6172923;23;20143;-76
2023/05/02 13:27:17;;;;;;;3.90;2.17;;;;;;;;;;6177015;23;20005;-77
2023/05/02 13:29:47;;;;;;;6.88;2.40;;;;;;;;;;6179008;23;20717;-76
2023/05/02 13:32:12;;;;;;;5.38;2.33;;;;;;;;;;6179971;23;20732;-76
2023/05/02 13:34:38;;;;;;;4.93;2.05;;;;;;;;;;6176015;23;20016;-74
2023/05/02 13:37:03;;;;;;;6.80;2.33;;;;;;;;;;6175675;23;20012;-74
2023/05/02 13:39:29;;;;;;;7.95;2.55;;;;;;;;;;6175439;23;20034;-74
2023/05/02 13:41:54;;;;;;;5.53;2.28;;;;;;;;;;6173172;23;20012;-74
2023/05/02 13:44:20;;;;;;;3.88;2.03;;;;;;;;;;6178053;23;20403;-74
2023/05/02 13:46:46;;;;;;;4.47;2.20;;;;;;;;;;6174510;23;20004;-74
2023/05/02 13:49:11;;;;;;;5.78;2.42;;;;;;;;;;6173640;23;20404;-75
2023/05/02 13:51:36;;;;;;;7.32;2.50;;;;;;;;;;6175760;23;20059;-76
2023/05/02 13:54:02;;;;;;;5.28;2.00;;;;;;;;;;6173488;23;20012;-73
2023/05/02 13:56:27;;;;;;;8.52;2.63;;;;;;;;;;6171972;23;20009;-74
2023/05/02 13:58:52;;;;;;;7.63;2.65;;;;;;;;;;6172107;23;20060;-75
2023/05/02 14:01:18;;;;;;;4.95;2.17;;;;;;;;;;6173665;23;20013;-73
2023/05/02 14:03:43;;;;;;;5.15;2.47;;;;;;;;;;6171309;23;20043;-74
2023/05/02 14:06:08;;;;;;;6.57;2.72;;;;;;;;;;6174171;23;20008;-74
2023/05/02 14:08:34;;;;;;;6.85;2.40;;;;;;;;;;6175351;23;20016;-75
2023/05/02 14:11:00;;;;;;;6.57;2.50;;;;;;;;;;6173571;23;20019;-75
2023/05/02 14:13:25;;;;;;;6.35;2.40;;;;;;;;;;6173726;23;20016;-74
2023/05/02 14:15:51;;;;;;;6.18;2.47;;;;;;;;;;6174227;23;20004;-74
2023/05/02 14:18:17;;;;;;;6.20;2.60;;;;;;;;;;6173838;23;20110;-74
2023/05/02 14:20:42;;;;;;;6.30;2.67;;;;;;;;;;6175408;23;20009;-74
2023/05/02 14:23:08;;;;;;;8.52;2.80;;;;;;;;;;6175785;23;20005;-75
2023/05/02 14:25:35;;;;;;;5.43;2.17;;;;;;;;;;6172606;23;20360;-75
2023/05/02 14:28:00;;;;;;;6.22;2.42;;;;;;;;;;6176350;23;20009;-74
2023/05/02 14:30:26;;;;;;;7.20;2.60;;;;;;;;;;6173381;23;20009;-75
2023/05/02 14:32:51;;;;;;;9.32;2.70;;;;;;;;;;6173684;23;20078;-73
2023/05/02 14:35:17;;;;;;;6.68;2.63;;;;;;;;;;6176042;23;20032;-74
2023/05/02 14:37:44;;;;;;;5.75;2.60;;;;;;;;;;6176073;23;20016;-75
2023/05/02 14:40:10;;;;;;;7.45;2.75;;;;;;;;;;6173517;23;20015;-74
2023/05/02 14:42:35;;;;;;;6.32;2.50;;;;;;;;;;6175350;23;20001;-74
2023/05/02 14:45:01;;;;;;;4.63;2.58;;;;;;;;;;6175050;23;20016;-76